createdAt,value
2018-07-06T00:00:50.833Z,17.89
2018-07-06T00:02:50.450Z,17.90
2018-07-06T00:04:50.284Z,17.93
2018-07-06T00:06:50.159Z,17.95
2018-07-06T00:08:50.629Z,17.97
2018-07-06T00:10:50.369Z,17.96
2018-07-06T00:12:49.967Z,17.96
2018-07-06T00:14:50.832Z,17.97
2018-07-06T00:16:50.130Z,17.96
2018-07-06T00:18:50.162Z,17.93
2018-07-06T00:20:50.209Z,17.92
2018-07-06T00:22:50.463Z,17.91
2018-07-06T00:24:50.441Z,17.93
2018-07-06T00:26:50.770Z,17.96
2018-07-06T00:28:50.683Z,17.99
2018-07-06T00:30:50.792Z,18.02
2018-07-06T00:32:50.128Z,18.04
2018-07-06T00:34:50.653Z,18.05
2018-07-06T00:36:51.383Z,18.04
2018-07-06T00:38:50.313Z,18.01
2018-07-06T00:40:50.469Z,17.99
2018-07-06T00:42:50.636Z,17.99
2018-07-06T00:44:50.221Z,18.00
2018-07-06T00:46:50.403Z,17.98
2018-07-06T00:48:50.624Z,17.97
2018-07-06T00:50:50.159Z,17.95
2018-07-06T00:52:50.808Z,17.96
2018-07-06T00:54:51.382Z,17.99
2018-07-06T00:56:50.269Z,18.01
2018-07-06T00:58:50.654Z,18.07
2018-07-06T01:00:50.764Z,18.08
2018-07-06T01:02:50.262Z,18.06
2018-07-06T01:04:50.576Z,18.04
2018-07-06T01:06:50.026Z,18.03
2018-07-06T01:08:50.387Z,18.02
2018-07-06T01:10:50.496Z,18.02
2018-07-06T01:12:49.997Z,18.04
2018-07-06T01:14:50.075Z,18.04
2018-07-06T01:16:50.836Z,18.05
2018-07-06T01:18:49.869Z,18.05
2018-07-06T01:20:50.156Z,18.05
2018-07-06T01:22:50.760Z,18.04
2018-07-06T01:24:50.696Z,18.00
2018-07-06T01:26:50.678Z,17.98
2018-07-06T01:28:50.651Z,17.98
2018-07-06T01:30:50.755Z,17.97
2018-07-06T01:32:50.628Z,17.96
2018-07-06T01:34:50.556Z,17.92
2018-07-06T01:36:50.499Z,17.91
2018-07-06T01:38:50.137Z,17.90
2018-07-06T01:40:50.462Z,17.88
2018-07-06T01:42:50.351Z,17.82
2018-07-06T01:44:50.157Z,17.80
2018-07-06T01:46:50.318Z,17.80
2018-07-06T01:48:50.872Z,17.81
2018-07-06T01:50:50.043Z,17.81
2018-07-06T01:52:50.811Z,17.80
2018-07-06T01:54:50.785Z,17.80
2018-07-06T01:56:50.117Z,17.79
2018-07-06T01:58:50.576Z,17.78
2018-07-06T02:00:50.607Z,17.78
2018-07-06T02:02:50.383Z,17.78
2018-07-06T02:04:50.615Z,17.77
2018-07-06T02:06:50.191Z,17.74
2018-07-06T02:08:49.881Z,17.75
2018-07-06T02:10:50.237Z,17.77
2018-07-06T02:12:49.938Z,17.78
2018-07-06T02:14:50.335Z,17.80
2018-07-06T02:16:49.910Z,17.79
2018-07-06T02:18:50.338Z,17.76
2018-07-06T02:20:49.959Z,17.76
2018-07-06T02:22:50.059Z,17.76
2018-07-06T02:24:50.790Z,17.73
2018-07-06T02:26:50.802Z,17.71
2018-07-06T02:28:50.059Z,17.70
2018-07-06T02:30:50.510Z,17.68
2018-07-06T02:32:50.563Z,17.67
2018-07-06T02:34:50.636Z,17.68
2018-07-06T02:36:50.564Z,17.69
2018-07-06T02:38:50.852Z,17.69
2018-07-06T02:40:50.139Z,17.69
2018-07-06T02:42:50.120Z,17.69
2018-07-06T02:44:50.263Z,17.69
2018-07-06T02:46:50.574Z,17.69
2018-07-06T02:48:50.526Z,17.70
2018-07-06T02:50:50.635Z,17.67
2018-07-06T02:52:50.742Z,17.65
2018-07-06T02:54:50.058Z,17.65
2018-07-06T02:56:50.356Z,17.65
2018-07-06T02:58:50.134Z,17.64
2018-07-06T03:00:50.243Z,17.61
2018-07-06T03:02:50.270Z,17.59
2018-07-06T03:04:49.964Z,17.59
2018-07-06T03:06:50.086Z,17.59
2018-07-06T03:08:50.711Z,17.55
2018-07-06T03:10:50.815Z,17.53
2018-07-06T03:12:50.824Z,17.51
2018-07-06T03:14:50.720Z,17.52
2018-07-06T03:16:50.107Z,17.50
2018-07-06T03:18:50.178Z,17.47
2018-07-06T03:20:50.622Z,17.47
2018-07-06T03:22:50.454Z,17.44
2018-07-06T03:24:50.567Z,17.43
2018-07-06T03:26:49.952Z,17.41
2018-07-06T03:28:52.617Z,17.38
2018-07-06T03:30:50.143Z,17.36
2018-07-06T03:32:50.075Z,17.34
2018-07-06T03:34:50.608Z,17.31
2018-07-06T03:36:50.685Z,17.28
2018-07-06T03:38:50.349Z,17.27
2018-07-06T03:40:50.703Z,17.26
2018-07-06T03:42:50.785Z,17.21
2018-07-06T03:44:50.415Z,17.19
2018-07-06T03:46:50.751Z,17.17
2018-07-06T03:48:49.998Z,17.16
2018-07-06T03:50:50.285Z,17.16
2018-07-06T03:52:50.591Z,17.14
2018-07-06T03:54:50.381Z,17.10
2018-07-06T03:56:50.209Z,17.10
2018-07-06T03:58:50.514Z,17.08
2018-07-06T04:00:50.821Z,17.07
2018-07-06T04:02:50.330Z,17.06
2018-07-06T04:04:50.065Z,17.05
2018-07-06T04:06:49.980Z,17.05
2018-07-06T04:08:50.116Z,17.08
2018-07-06T04:10:50.420Z,17.07
2018-07-06T04:12:49.919Z,17.07
2018-07-06T04:14:50.490Z,17.06
2018-07-06T04:16:50.694Z,17.08
2018-07-06T04:18:50.773Z,17.06
2018-07-06T04:20:50.862Z,17.04
2018-07-06T04:22:50.645Z,17.06
2018-07-06T04:24:50.054Z,17.07
2018-07-06T04:26:50.548Z,17.08
2018-07-06T04:28:50.427Z,17.10
2018-07-06T04:30:50.656Z,17.11
2018-07-06T04:32:50.338Z,17.11
2018-07-06T04:34:50.855Z,17.14
2018-07-06T04:36:50.345Z,17.15
2018-07-06T04:38:49.993Z,17.15
2018-07-06T04:40:50.363Z,17.18
2018-07-06T04:42:49.973Z,17.18
2018-07-06T04:44:50.522Z,17.19
2018-07-06T04:46:50.225Z,17.19
2018-07-06T04:48:50.677Z,17.19
2018-07-06T04:50:50.153Z,17.19
2018-07-06T04:52:50.678Z,17.19
2018-07-06T04:54:49.984Z,17.20
2018-07-06T04:56:49.994Z,17.21
2018-07-06T04:58:50.149Z,17.21
2018-07-06T05:00:50.721Z,17.19
2018-07-06T05:02:50.379Z,17.19
2018-07-06T05:04:49.933Z,17.21
2018-07-06T05:06:50.889Z,17.22
2018-07-06T05:08:50.696Z,17.21
2018-07-06T05:10:50.391Z,17.18
2018-07-06T05:12:50.095Z,17.20
2018-07-06T05:14:50.616Z,17.22
2018-07-06T05:16:51.005Z,17.24
2018-07-06T05:18:50.249Z,17.22
2018-07-06T05:20:50.128Z,17.19
2018-07-06T05:22:50.752Z,17.19
2018-07-06T05:24:50.203Z,17.21
2018-07-06T05:26:50.355Z,17.21
2018-07-06T05:28:50.847Z,17.21
2018-07-06T05:30:50.625Z,17.21
2018-07-06T05:32:50.438Z,17.21
2018-07-06T05:34:49.982Z,17.22
2018-07-06T05:36:49.987Z,17.20
2018-07-06T05:38:50.625Z,17.21
2018-07-06T05:40:50.594Z,17.21
2018-07-06T05:42:50.100Z,17.19
2018-07-06T05:44:50.555Z,17.15
2018-07-06T05:46:50.916Z,17.12
2018-07-06T05:48:50.397Z,17.13
2018-07-06T05:50:50.492Z,17.18
2018-07-06T05:52:50.562Z,17.17
2018-07-06T05:54:50.184Z,17.15
2018-07-06T05:56:50.650Z,17.11
2018-07-06T05:58:50.011Z,17.06
2018-07-06T06:00:50.085Z,17.05
2018-07-06T06:02:50.181Z,17.04
2018-07-06T06:04:50.190Z,17.08
2018-07-06T06:06:50.419Z,17.09
2018-07-06T06:08:50.473Z,17.12
2018-07-06T06:10:50.577Z,17.14
2018-07-06T06:12:50.669Z,17.10
2018-07-06T06:14:50.437Z,17.10
2018-07-06T06:16:49.918Z,17.11
2018-07-06T06:18:51.014Z,17.13
2018-07-06T06:20:50.432Z,17.11
2018-07-06T06:22:50.558Z,17.13
2018-07-06T06:24:50.829Z,17.14
2018-07-06T06:26:50.151Z,17.14
2018-07-06T06:28:50.360Z,17.11
2018-07-06T06:30:50.812Z,17.11
2018-07-06T06:32:50.429Z,17.13
2018-07-06T06:34:50.079Z,17.17
2018-07-06T06:36:50.596Z,17.22
2018-07-06T06:38:50.012Z,17.27
2018-07-06T06:40:50.486Z,17.24
2018-07-06T06:42:50.538Z,17.26
2018-07-06T06:44:51.595Z,17.32
2018-07-06T06:46:50.172Z,17.37
2018-07-06T06:48:50.402Z,17.4
2018-07-06T06:50:50.592Z,17.4
2018-07-06T06:52:50.693Z,17.5
2018-07-06T06:54:50.773Z,17.60
2018-07-06T06:56:50.082Z,17.60
2018-07-06T06:58:50.235Z,17.6
2018-07-06T07:00:50.319Z,17.6
2018-07-06T07:02:50.578Z,17.7
2018-07-06T07:04:50.214Z,17.8
2018-07-06T07:06:50.547Z,17.80
2018-07-06T07:08:50.665Z,17.80
2018-07-06T07:10:49.924Z,17.85
2018-07-06T07:12:50.015Z,18.02
2018-07-06T07:14:50.170Z,18.18
2018-07-06T07:16:50.443Z,18.19
2018-07-06T07:18:50.690Z,18.15
2018-07-06T07:20:50.018Z,18.16
2018-07-06T07:22:50.106Z,18.20
2018-07-06T07:24:50.282Z,18.43
2018-07-06T07:26:50.592Z,18.43
2018-07-06T07:28:50.823Z,18.42
2018-07-06T07:30:49.870Z,18.52
2018-07-06T07:32:49.971Z,18.51
2018-07-06T07:34:50.367Z,18.52
2018-07-06T07:36:50.530Z,18.42
2018-07-06T07:38:50.999Z,18.41
2018-07-06T07:40:50.181Z,18.51
2018-07-06T07:42:50.277Z,18.61
2018-07-06T07:44:50.369Z,18.69
2018-07-06T07:46:50.543Z,18.77
2018-07-06T07:48:50.645Z,18.83
2018-07-06T07:50:50.735Z,19.05
2018-07-06T07:52:50.852Z,19.22
2018-07-06T07:54:50.081Z,19.25
2018-07-06T07:56:50.346Z,19.26
2018-07-06T07:58:50.512Z,19.29
2018-07-06T08:00:51.837Z,19.48
2018-07-06T08:02:50.324Z,19.58
2018-07-06T08:04:50.579Z,19.66
2018-07-06T08:06:49.909Z,19.71
2018-07-06T08:08:50.203Z,19.55
2018-07-06T08:10:50.362Z,19.36
2018-07-06T08:12:50.484Z,19.36
2018-07-06T08:14:50.613Z,19.01
2018-07-06T08:16:50.014Z,18.91
2018-07-06T08:18:50.113Z,18.82
2018-07-06T08:20:50.327Z,18.81
2018-07-06T08:22:50.602Z,18.89
2018-07-06T08:24:50.740Z,18.89
2018-07-06T08:26:50.091Z,18.93
2018-07-06T08:28:50.211Z,18.94
2018-07-06T08:30:50.437Z,18.96
2018-07-06T08:32:50.598Z,18.94
2018-07-06T08:34:50.811Z,18.87
2018-07-06T08:36:50.076Z,18.89
2018-07-06T08:38:49.956Z,18.87
2018-07-06T08:40:50.085Z,18.80
2018-07-06T08:42:50.191Z,18.85
2018-07-06T08:44:50.608Z,18.75
2018-07-06T08:46:50.000Z,18.83
2018-07-06T08:48:50.069Z,18.87
2018-07-06T08:50:50.221Z,18.84
2018-07-06T08:52:50.282Z,18.90
2018-07-06T08:54:50.374Z,18.95
2018-07-06T08:56:50.572Z,18.99
2018-07-06T08:58:50.612Z,19.12
2018-07-06T09:00:50.839Z,19.21
2018-07-06T09:02:49.994Z,19.12
2018-07-06T09:04:50.603Z,19.06
2018-07-06T09:06:50.787Z,19.05
2018-07-06T09:08:50.863Z,19.05
2018-07-06T09:10:50.061Z,19.16
2018-07-06T09:12:50.187Z,19.29
2018-07-06T09:14:50.426Z,19.33
2018-07-06T09:16:50.658Z,19.33
2018-07-06T09:18:50.709Z,19.47
2018-07-06T09:20:50.809Z,19.74
2018-07-06T09:22:49.863Z,19.75
2018-07-06T09:24:49.999Z,19.71
2018-07-06T09:26:50.223Z,19.85
2018-07-06T09:28:50.401Z,19.90
2018-07-06T09:30:50.541Z,19.78
2018-07-06T09:32:50.649Z,19.70
2018-07-06T09:34:49.882Z,19.61
2018-07-06T09:36:50.287Z,19.63
2018-07-06T09:38:50.516Z,19.59
2018-07-06T09:40:50.686Z,19.53
2018-07-06T09:42:50.743Z,19.60
2018-07-06T09:44:50.793Z,19.66
2018-07-06T09:46:50.054Z,19.83
2018-07-06T09:48:50.238Z,19.97
2018-07-06T09:50:50.618Z,20.25
2018-07-06T09:52:50.756Z,20.39
2018-07-06T09:54:50.838Z,20.38
2018-07-06T09:56:50.067Z,20.55
2018-07-06T09:58:50.133Z,20.55
2018-07-06T10:00:50.276Z,20.78
2018-07-06T10:02:50.147Z,20.97
2018-07-06T10:04:50.596Z,20.99
2018-07-06T10:06:50.847Z,21.24
2018-07-06T10:08:50.076Z,21.35
2018-07-06T10:10:50.352Z,21.48
2018-07-06T10:12:50.568Z,21.89
2018-07-06T10:14:50.760Z,22.12
2018-07-06T10:16:50.087Z,22.21
2018-07-06T10:18:50.190Z,22.40
2018-07-06T10:20:50.418Z,22.63
2018-07-06T10:22:50.679Z,23.12
2018-07-06T10:24:50.737Z,23.6
2018-07-06T10:26:50.010Z,23.6
2018-07-06T10:28:50.102Z,23.8
2018-07-06T10:30:50.152Z,24.0
2018-07-06T10:32:50.275Z,23.27
2018-07-06T10:34:50.652Z,23.15
2018-07-06T10:36:50.812Z,22.43
2018-07-06T10:38:49.881Z,22.26
2018-07-06T10:40:50.036Z,22.01
2018-07-06T10:42:50.188Z,22.14
2018-07-06T10:44:50.259Z,22.70
2018-07-06T10:46:50.410Z,23.30
2018-07-06T10:48:50.628Z,23.82
2018-07-06T10:50:50.727Z,24.1
2018-07-06T10:52:49.943Z,24.3
2018-07-06T10:54:50.167Z,24.3
2018-07-06T10:56:50.390Z,24.4
2018-07-06T10:58:50.531Z,24.4
2018-07-06T11:00:50.673Z,24.5
2018-07-06T11:02:50.818Z,24.6
2018-07-06T11:04:50.071Z,24.6
2018-07-06T11:06:50.295Z,24.6
2018-07-06T11:08:50.699Z,24.7
2018-07-06T11:10:50.880Z,24.50
2018-07-06T11:12:50.091Z,23.91
2018-07-06T11:14:50.179Z,23.23
2018-07-06T11:16:50.395Z,22.77
2018-07-06T11:18:50.520Z,22.63
2018-07-06T11:20:50.621Z,22.83
2018-07-06T11:22:50.685Z,22.84
2018-07-06T11:24:50.791Z,23.04
2018-07-06T11:26:49.950Z,23.51
2018-07-06T11:28:50.039Z,24.13
2018-07-06T11:30:50.205Z,24.3
2018-07-06T11:32:50.444Z,24.3
2018-07-06T11:34:49.913Z,24.3
2018-07-06T11:36:50.118Z,24.3
2018-07-06T11:38:50.252Z,24.4
2018-07-06T11:40:50.448Z,24.4
2018-07-06T11:42:50.602Z,24.4
2018-07-06T11:44:51.144Z,24.5
2018-07-06T11:46:50.425Z,24.5
2018-07-06T11:48:50.812Z,24.5
2018-07-06T11:50:49.862Z,24.5
2018-07-06T11:52:49.937Z,24.6
2018-07-06T11:54:50.038Z,24.6
2018-07-06T11:56:50.266Z,24.6
2018-07-06T11:58:50.429Z,24.6
2018-07-06T12:00:50.571Z,24.6
2018-07-06T12:02:50.830Z,24.6
2018-07-06T12:04:50.181Z,24.7
2018-07-06T12:06:50.417Z,24.7
2018-07-06T12:08:50.430Z,24.8
2018-07-06T12:10:50.538Z,24.8
2018-07-06T12:12:50.602Z,24.8
2018-07-06T12:14:50.679Z,24.8
2018-07-06T12:16:50.015Z,24.8
2018-07-06T12:18:50.214Z,24.8
2018-07-06T12:20:50.900Z,24.8
2018-07-06T12:22:49.995Z,24.8
2018-07-06T12:24:50.109Z,24.8
2018-07-06T12:26:50.348Z,24.8
2018-07-06T12:28:50.424Z,24.8
2018-07-06T12:30:50.478Z,24.8
2018-07-06T12:32:49.904Z,24.9
2018-07-06T12:34:50.301Z,25.0
2018-07-06T12:36:50.526Z,25.0
2018-07-06T12:38:50.634Z,25.0
2018-07-06T12:40:50.720Z,25.0
2018-07-06T12:42:50.787Z,25.1
2018-07-06T12:44:49.945Z,25.2
2018-07-06T12:46:50.392Z,25.4
2018-07-06T12:48:50.953Z,25.4
2018-07-06T12:50:50.292Z,25.4
2018-07-06T12:52:50.515Z,25.4
2018-07-06T12:54:50.598Z,25.4
2018-07-06T12:56:50.792Z,25.4
2018-07-06T12:58:51.416Z,25.5
2018-07-06T13:00:50.723Z,25.5
2018-07-06T13:02:49.912Z,25.5
2018-07-06T13:04:50.129Z,25.5
2018-07-06T13:06:50.298Z,25.6
2018-07-06T13:08:50.369Z,25.6
2018-07-06T13:10:50.624Z,25.6
2018-07-06T13:12:50.064Z,25.6
2018-07-06T13:14:50.181Z,25.6
2018-07-06T13:16:50.326Z,25.7
2018-07-06T13:18:50.163Z,25.7
2018-07-06T13:20:50.657Z,25.8
2018-07-06T13:22:50.024Z,25.8
2018-07-06T13:24:50.080Z,25.8
2018-07-06T13:26:50.205Z,25.9
2018-07-06T13:28:50.348Z,25.9
2018-07-06T13:30:50.481Z,26.0
2018-07-06T13:32:50.589Z,26.0
2018-07-06T13:34:50.210Z,26.2
2018-07-06T13:36:50.156Z,26.2
2018-07-06T13:38:50.342Z,26.2
2018-07-06T13:40:50.569Z,26.3
2018-07-06T13:42:50.619Z,26.3
2018-07-06T13:44:50.362Z,26.4
2018-07-06T13:46:50.563Z,26.4
2018-07-06T13:48:50.608Z,26.3
2018-07-06T13:50:49.866Z,26.4
2018-07-06T13:52:49.910Z,26.4
2018-07-06T13:54:50.805Z,26.4
2018-07-06T13:56:50.105Z,26.4
2018-07-06T13:58:50.206Z,26.5
2018-07-06T14:00:49.973Z,26.5
2018-07-06T14:02:50.027Z,26.6
2018-07-06T14:04:50.342Z,26.6
2018-07-06T14:06:50.526Z,26.7
2018-07-06T14:08:50.815Z,26.8
2018-07-06T14:10:49.896Z,27.0
2018-07-06T14:12:49.983Z,27.1
2018-07-06T14:14:50.084Z,27.1
2018-07-06T14:16:50.298Z,27.2
2018-07-06T14:18:50.366Z,27.2
2018-07-06T14:20:50.440Z,27.2
2018-07-06T14:22:50.495Z,27.2
2018-07-06T14:24:50.549Z,27.3
2018-07-06T14:26:50.736Z,27.3
2018-07-06T14:28:50.814Z,27.4
2018-07-06T14:30:50.897Z,27.4
2018-07-06T14:32:50.079Z,27.4
2018-07-06T14:34:50.839Z,27.4
2018-07-06T14:36:50.212Z,27.4
2018-07-06T14:38:50.432Z,27.4
2018-07-06T14:40:50.557Z,27.4
2018-07-06T14:42:50.669Z,27.4
2018-07-06T14:44:50.788Z,27.4
2018-07-06T14:46:50.038Z,27.4
2018-07-06T14:48:50.314Z,27.4
2018-07-06T14:50:50.428Z,27.4
2018-07-06T14:52:51.028Z,27.3
2018-07-06T14:54:50.495Z,27.1
2018-07-06T14:56:50.753Z,27.0
2018-07-06T14:58:50.849Z,27.0
2018-07-06T15:00:49.970Z,27.0
2018-07-06T15:02:50.057Z,27.0
2018-07-06T15:04:50.379Z,27.1
2018-07-06T15:06:51.839Z,27.1
2018-07-06T15:08:50.080Z,27.2
2018-07-06T15:10:50.365Z,27.3
2018-07-06T15:12:50.577Z,27.3
2018-07-06T15:14:50.732Z,27.4
2018-07-06T15:16:50.888Z,27.6
2018-07-06T15:18:49.938Z,27.6
2018-07-06T15:20:50.170Z,27.6
2018-07-06T15:22:50.404Z,27.6
2018-07-06T15:24:51.101Z,27.7
2018-07-06T15:26:50.353Z,27.8
2018-07-06T15:28:50.421Z,27.8
2018-07-06T15:30:50.677Z,27.8
2018-07-06T15:32:50.758Z,27.9
2018-07-06T15:34:50.037Z,27.8
2018-07-06T15:36:50.363Z,27.8
2018-07-06T15:38:50.588Z,27.8
2018-07-06T15:40:50.861Z,27.7
2018-07-06T15:42:49.976Z,27.7
2018-07-06T15:44:50.063Z,27.6
2018-07-06T15:46:50.436Z,27.6
2018-07-06T15:48:50.495Z,27.6
2018-07-06T15:50:50.955Z,27.6
2018-07-06T15:52:50.080Z,27.7
2018-07-06T15:54:50.202Z,27.8
2018-07-06T15:56:50.503Z,27.8
2018-07-06T15:58:50.575Z,27.9
2018-07-06T16:00:50.702Z,27.9
2018-07-06T16:02:50.816Z,27.9
2018-07-06T16:04:50.072Z,27.9
2018-07-06T16:06:50.282Z,28.0
2018-07-06T16:08:50.340Z,28.0
2018-07-06T16:10:50.444Z,28.0
2018-07-06T16:12:50.532Z,28.1
2018-07-06T16:14:50.623Z,28.1
2018-07-06T16:16:50.787Z,28.1
2018-07-06T16:18:50.861Z,28.2
2018-07-06T16:20:50.486Z,28.2
2018-07-06T16:22:50.694Z,28.2
2018-07-06T16:24:51.213Z,28.3
2018-07-06T16:26:50.614Z,28.3
2018-07-06T16:28:50.655Z,28.4
2018-07-06T16:30:50.811Z,28.4
2018-07-06T16:32:49.969Z,28.4
2018-07-06T16:34:50.239Z,28.4
2018-07-06T16:36:50.460Z,28.4
2018-07-06T16:38:50.546Z,28.5
2018-07-06T16:40:50.659Z,28.5
2018-07-06T16:42:50.740Z,28.4
2018-07-06T16:44:50.862Z,28.4
2018-07-06T16:46:50.047Z,28.4
2018-07-06T16:48:50.210Z,28.5
2018-07-06T16:50:50.494Z,28.4
2018-07-06T16:52:50.669Z,28.4
2018-07-06T16:54:50.771Z,28.4
2018-07-06T16:56:50.067Z,28.4
2018-07-06T16:58:50.131Z,28.4
2018-07-06T17:00:50.208Z,28.4
2018-07-06T17:02:50.269Z,28.4
2018-07-06T17:04:50.613Z,28.4
2018-07-06T17:06:50.843Z,28.3
2018-07-06T17:08:50.076Z,28.4
2018-07-06T17:10:50.347Z,28.3
2018-07-06T17:12:50.389Z,28.3
2018-07-06T17:14:50.475Z,28.3
2018-07-06T17:16:50.733Z,28.28
2018-07-06T17:18:50.893Z,27.76
2018-07-06T17:20:49.941Z,27.36
2018-07-06T17:22:50.018Z,27.23
2018-07-06T17:24:50.126Z,26.98
2018-07-06T17:26:50.298Z,26.92
2018-07-06T17:28:50.367Z,26.87
2018-07-06T17:30:50.506Z,26.69
2018-07-06T17:32:50.619Z,26.41
2018-07-06T17:34:50.043Z,26.32
2018-07-06T17:36:50.212Z,26.23
2018-07-06T17:38:50.276Z,26.19
2018-07-06T17:40:50.358Z,26.07
2018-07-06T17:42:50.628Z,25.99
2018-07-06T17:44:50.777Z,25.90
2018-07-06T17:46:50.071Z,25.87
2018-07-06T17:48:50.196Z,25.77
2018-07-06T17:50:50.312Z,25.63
2018-07-06T17:52:50.503Z,25.57
2018-07-06T17:54:50.596Z,25.48
2018-07-06T17:56:50.787Z,25.45
2018-07-06T17:58:50.004Z,25.39
2018-07-06T18:00:50.107Z,25.35
2018-07-06T18:02:50.310Z,25.26
2018-07-06T18:04:50.645Z,25.23
2018-07-06T18:06:50.006Z,25.17
2018-07-06T18:08:50.159Z,25.12
2018-07-06T18:10:50.328Z,25.05
2018-07-06T18:12:50.833Z,24.92
2018-07-06T18:14:50.210Z,24.86
2018-07-06T18:16:50.777Z,24.80
2018-07-06T18:18:50.042Z,24.70
2018-07-06T18:20:50.293Z,24.60
2018-07-06T18:22:51.096Z,24.57
2018-07-06T18:24:50.602Z,24.56
2018-07-06T18:26:49.888Z,24.50
2018-07-06T18:28:50.084Z,24.49
2018-07-06T18:30:50.487Z,24.52
2018-07-06T18:32:50.900Z,24.52
2018-07-06T18:34:50.215Z,24.47
2018-07-06T18:36:50.449Z,24.32
2018-07-06T18:38:50.662Z,24.18
2018-07-06T18:40:50.820Z,24.08
2018-07-06T18:42:50.026Z,23.99
2018-07-06T18:44:50.296Z,23.89
2018-07-06T18:46:50.590Z,23.78
2018-07-06T18:48:50.701Z,23.73
2018-07-06T18:50:49.984Z,23.60
2018-07-06T18:52:50.276Z,23.58
2018-07-06T18:54:50.545Z,23.48
2018-07-06T18:56:50.843Z,23.42
2018-07-06T18:58:50.079Z,23.33
2018-07-06T19:00:50.316Z,23.29
2018-07-06T19:02:50.434Z,23.23
2018-07-06T19:04:49.971Z,23.17
2018-07-06T19:06:50.291Z,23.02
2018-07-06T19:08:50.409Z,22.97
2018-07-06T19:10:50.612Z,22.90
2018-07-06T19:12:50.777Z,22.83
2018-07-06T19:14:49.884Z,22.68
2018-07-06T19:16:50.313Z,22.64
2018-07-06T19:18:50.483Z,22.55
2018-07-06T19:20:50.765Z,22.48
2018-07-06T19:22:49.949Z,22.44
2018-07-06T19:24:50.184Z,22.39
2018-07-06T19:26:50.740Z,22.33
2018-07-06T19:28:50.065Z,22.24
2018-07-06T19:30:50.624Z,22.16
2018-07-06T19:32:49.927Z,22.10
2018-07-06T19:34:50.240Z,21.98
2018-07-06T19:36:50.595Z,21.91
2018-07-06T19:38:50.755Z,21.79
2018-07-06T19:40:49.906Z,21.75
2018-07-06T19:42:50.009Z,21.69
2018-07-06T19:44:50.125Z,21.67
2018-07-06T19:46:50.509Z,21.65
2018-07-06T19:48:49.898Z,21.54
2018-07-06T19:50:50.062Z,21.50
2018-07-06T19:52:50.232Z,21.41
2018-07-06T19:54:50.366Z,21.34
2018-07-06T19:56:50.642Z,21.32
2018-07-06T19:58:50.742Z,21.29
2018-07-06T20:00:50.862Z,21.18
2018-07-06T20:02:50.024Z,21.10
2018-07-06T20:04:50.326Z,21.06
2018-07-06T20:06:50.819Z,21.03
2018-07-06T20:08:49.988Z,21.00
2018-07-06T20:10:50.183Z,20.92
2018-07-06T20:12:50.337Z,20.90
2018-07-06T20:14:50.511Z,20.82
2018-07-06T20:16:50.804Z,20.77
2018-07-06T20:18:49.982Z,20.63
2018-07-06T20:20:50.191Z,20.50
2018-07-06T20:22:50.427Z,20.44
2018-07-06T20:24:50.515Z,20.40
2018-07-06T20:26:50.824Z,20.39
2018-07-06T20:28:49.926Z,20.33
2018-07-06T20:30:50.126Z,20.27
2018-07-06T20:32:50.245Z,20.27
2018-07-06T20:34:50.549Z,20.29
2018-07-06T20:36:50.148Z,20.27
2018-07-06T20:38:50.478Z,20.17
2018-07-06T20:40:50.722Z,20.14
2018-07-06T20:42:50.799Z,20.10
2018-07-06T20:44:49.935Z,20.04
2018-07-06T20:46:50.161Z,20.01
2018-07-06T20:48:50.254Z,19.91
2018-07-06T20:50:50.572Z,19.85
2018-07-06T20:52:50.783Z,19.77
2018-07-06T20:54:49.950Z,19.77
2018-07-06T20:56:50.223Z,19.65
2018-07-06T20:58:50.433Z,19.62
2018-07-06T21:00:50.533Z,19.50
2018-07-06T21:02:50.700Z,19.41
2018-07-06T21:04:50.837Z,19.37
2018-07-06T21:06:50.394Z,19.31
2018-07-06T21:08:50.529Z,19.25
2018-07-06T21:10:50.684Z,19.18
2018-07-06T21:12:50.901Z,19.15
2018-07-06T21:14:50.179Z,19.09
2018-07-06T21:16:50.842Z,19.00
2018-07-06T21:18:50.502Z,18.97
2018-07-06T21:20:50.784Z,18.91
2018-07-06T21:22:50.106Z,18.86
2018-07-06T21:24:50.246Z,18.77
2018-07-06T21:26:50.747Z,18.75
2018-07-06T21:28:49.933Z,18.68
2018-07-06T21:30:50.252Z,18.63
2018-07-06T21:32:50.549Z,18.51
2018-07-06T21:34:50.025Z,18.38
2018-07-06T21:36:50.387Z,18.30
2018-07-06T21:38:50.634Z,18.30
2018-07-06T21:40:50.807Z,18.19
2018-07-06T21:42:50.028Z,18.07
2018-07-06T21:44:50.108Z,18.07
2018-07-06T21:46:50.348Z,17.98
2018-07-06T21:48:50.481Z,17.86
2018-07-06T21:50:50.560Z,17.83
2018-07-06T21:52:50.713Z,17.74
2018-07-06T21:54:50.798Z,17.67
2018-07-06T21:56:50.111Z,17.62
2018-07-06T21:58:50.187Z,17.53
2018-07-06T22:00:50.344Z,17.50
2018-07-06T22:02:50.422Z,17.42
2018-07-06T22:04:50.674Z,17.39
2018-07-06T22:06:49.937Z,17.35
2018-07-06T22:08:50.082Z,17.29
2018-07-06T22:10:50.342Z,17.21
2018-07-06T22:12:50.518Z,17.17
2018-07-06T22:14:50.631Z,17.10
2018-07-06T22:16:49.992Z,17.10
2018-07-06T22:18:50.167Z,17.09
2018-07-06T22:20:50.393Z,17.08
2018-07-06T22:22:50.563Z,17.08
2018-07-06T22:24:50.758Z,17.00
2018-07-06T22:26:50.113Z,16.91
2018-07-06T22:28:50.295Z,16.84
2018-07-06T22:30:50.429Z,16.82
2018-07-06T22:32:50.692Z,16.76
2018-07-06T22:34:50.158Z,16.72
2018-07-06T22:36:50.622Z,16.63
2018-07-06T22:38:50.845Z,16.60
2018-07-06T22:40:50.008Z,16.53
2018-07-06T22:42:50.205Z,16.51
2018-07-06T22:44:50.567Z,16.51
2018-07-06T22:46:49.968Z,16.49
2018-07-06T22:48:50.355Z,16.48
2018-07-06T22:50:50.752Z,16.45
2018-07-06T22:52:50.012Z,16.44
2018-07-06T22:54:50.202Z,16.43
2018-07-06T22:56:50.449Z,16.43
2018-07-06T22:58:50.675Z,16.43
2018-07-06T23:00:50.813Z,16.41
2018-07-06T23:02:50.052Z,16.42
2018-07-06T23:04:50.576Z,16.42
2018-07-06T23:06:49.957Z,16.39
2018-07-06T23:08:50.145Z,16.36
2018-07-06T23:10:50.435Z,16.30
2018-07-06T23:12:50.524Z,16.28
2018-07-06T23:14:50.671Z,16.28
2018-07-06T23:16:49.895Z,16.26
2018-07-06T23:18:50.168Z,16.23
2018-07-06T23:20:50.494Z,16.12
2018-07-06T23:22:50.641Z,16.08
2018-07-06T23:24:50.692Z,15.98
2018-07-06T23:26:49.922Z,15.96
2018-07-06T23:28:50.095Z,15.91
2018-07-06T23:30:50.436Z,15.84
2018-07-06T23:32:50.516Z,15.84
2018-07-06T23:34:50.811Z,15.76
2018-07-06T23:36:50.088Z,15.74
2018-07-06T23:38:50.167Z,15.67
2018-07-06T23:40:50.420Z,15.61
2018-07-06T23:42:50.573Z,15.58
2018-07-06T23:44:50.694Z,15.52
2018-07-06T23:46:49.897Z,15.50
2018-07-06T23:48:50.321Z,15.47
2018-07-06T23:50:50.534Z,15.38
2018-07-06T23:52:50.890Z,15.31
2018-07-06T23:54:50.013Z,15.26
2018-07-06T23:56:50.191Z,15.17
2018-07-06T23:58:50.554Z,15.18
